Bearn, Canada
Current Conditions -  °F | °C
As of 8:00 AM on Thursday 30 Oct 2014 (Local Time) from CYXR Reporting Station
Broken Clouds Broken Clouds  
Wind Chill: 21°   Ceiling: 3000
Heat Index: 30°   Visibility: 9mi
Dew Point: 23°   Wind: 12mph
Humidity: 75%   Direction: 290°WNW
Pressure: 30.02"   Gusts: 17mph
Location:  47.28°N, 79.33°W
Report Text: CYXR 301200Z AUTO 29010G15KT 9SM BKN030 M01/M05 A3002 RMK SLP179
Loading
Personal Weather Stations






























Interactive Weather Map
Tropical Storm Tracking
New forecast layout! Learn more

10-Day Weather Forecast

Advertisements
Track Severe Weather on mobile